FRG weather

Republic Airport
Farmingdale, New York, United States

Public forecast

Using degrees Fahrenheit for public forecast. Weather courtesy of forecast.io.

Current aviation weather report (METAR) for Republic Airport

Retrieved 2020/06/05 21:53 UTC (34 minutes ago):

KFRG 052153Z AUTO 19009KT 9SM -RA FEW036 SCT085 OVC110 22/19 A2989 RMK AO2 RAB31 SLP119 P0004 T02220189

Closest aviation forecast (TAF) to Republic Airport

Closest forecast is Long Island Mac Arthur Airport, 14.8 nm (27.4 km) ENE. Retrieved 2020/06/05 18:42 UTC (4 hours ago):

TAF KISP 051740Z 0518/0618 21008KT P6SM SCT025 BKN050 FM052000 21007KT P6SM VCSH FEW025 BKN050 FM052300 18006KT 5SM SHRA BR VCTS SCT007 BKN025 OVC040CB TEMPO 0523/0601 2SM TSRA FM060300 19005KT 3SM -SHRA BR OVC007 TEMPO 0604/0607 2SM TSRA SCT007 OVC020CB FM060700 20005KT 1 1/2SM BR VCSH OVC004 FM061200 22006KT 3SM BR SCT005 BKN010 FM061500 22007KT 4SM BR BKN020 FM061600 24009KT P6SM SCT060